createdAt,value
2018-02-14T00:02:25.637Z,20.60
2018-02-14T00:04:51.694Z,20.59
2018-02-14T00:07:17.710Z,20.61
2018-02-14T00:09:43.779Z,20.60
2018-02-14T00:12:09.834Z,20.60
2018-02-14T00:14:35.845Z,20.60
2018-02-14T00:17:01.925Z,20.64
2018-02-14T00:19:27.941Z,20.59
2018-02-14T00:21:53.956Z,20.65
2018-02-14T00:24:19.970Z,20.65
2018-02-14T00:26:45.994Z,20.66
2018-02-14T00:29:12.014Z,20.67
2018-02-14T00:31:38.115Z,20.68
2018-02-14T00:34:04.193Z,20.70
2018-02-14T00:36:30.220Z,20.69
2018-02-14T00:38:56.269Z,20.71
2018-02-14T00:41:22.263Z,20.69
2018-02-14T00:43:48.294Z,20.69
2018-02-14T00:46:14.297Z,20.70
2018-02-14T00:48:40.359Z,20.71
2018-02-14T00:51:06.473Z,20.71
2018-02-14T00:53:32.490Z,20.74
2018-02-14T00:55:58.583Z,20.73
2018-02-14T00:58:24.672Z,20.75
2018-02-14T01:00:50.721Z,20.75
2018-02-14T01:03:16.769Z,20.77
2018-02-14T01:05:42.830Z,20.79
2018-02-14T01:08:08.857Z,20.77
2018-02-14T01:10:34.925Z,20.78
2018-02-14T01:13:00.953Z,20.77
2018-02-14T01:15:27.026Z,20.78
2018-02-14T01:17:53.116Z,20.76
2018-02-14T01:20:19.199Z,20.77
2018-02-14T01:22:45.236Z,20.81
2018-02-14T01:25:11.281Z,20.82
2018-02-14T01:27:37.316Z,20.79
2018-02-14T01:30:03.377Z,20.82
2018-02-14T01:32:29.451Z,20.82
2018-02-14T01:34:55.571Z,20.81
2018-02-14T01:37:21.634Z,20.82
2018-02-14T01:39:47.670Z,20.84
2018-02-14T01:42:13.756Z,20.85
2018-02-14T01:44:39.755Z,20.82
2018-02-14T01:47:05.794Z,20.86
2018-02-14T01:49:31.862Z,20.87
2018-02-14T01:51:57.883Z,20.86
2018-02-14T01:54:23.905Z,20.87
2018-02-14T01:56:49.953Z,20.89
2018-02-14T01:59:16.063Z,20.88
2018-02-14T02:01:42.191Z,20.92
2018-02-14T02:04:08.218Z,20.91
2018-02-14T02:06:34.299Z,20.94
2018-02-14T02:09:00.320Z,20.93
2018-02-14T02:11:26.389Z,20.92
2018-02-14T02:13:52.399Z,20.93
2018-02-14T02:16:18.423Z,20.98
2018-02-14T02:18:44.452Z,20.98
2018-02-14T02:21:10.519Z,20.98
2018-02-14T02:23:36.604Z,20.99
2018-02-14T02:26:02.629Z,20.98
2018-02-14T02:28:29.471Z,21.02
2018-02-14T02:30:55.473Z,21.01
2018-02-14T02:33:21.520Z,20.98
2018-02-14T02:35:47.626Z,21.04
2018-02-14T02:38:13.687Z,21.05
2018-02-14T02:40:39.726Z,21.04
2018-02-14T02:43:05.764Z,21.06
2018-02-14T02:45:31.797Z,21.07
2018-02-14T02:47:57.785Z,21.07
2018-02-14T02:50:23.906Z,21.08
2018-02-14T02:52:50.056Z,21.13
2018-02-14T02:55:16.067Z,21.12
2018-02-14T02:57:42.102Z,21.12
2018-02-14T03:00:08.126Z,21.11
2018-02-14T03:02:34.162Z,21.12
2018-02-14T03:05:00.189Z,21.12
2018-02-14T03:07:26.264Z,21.14
2018-02-14T03:09:52.336Z,21.13
2018-02-14T03:12:18.425Z,21.13
2018-02-14T03:14:44.466Z,21.12
2018-02-14T03:17:10.546Z,21.14
2018-02-14T03:19:36.607Z,21.15
2018-02-14T03:22:02.626Z,21.17
2018-02-14T03:24:28.662Z,21.16
2018-02-14T03:26:54.773Z,21.16
2018-02-14T03:29:20.815Z,21.18
2018-02-14T03:31:46.846Z,21.16
2018-02-14T03:34:12.912Z,21.16
2018-02-14T03:36:38.973Z,21.17
2018-02-14T03:39:05.033Z,21.17
2018-02-14T03:41:31.098Z,21.18
2018-02-14T03:43:57.241Z,21.20
2018-02-14T03:46:23.321Z,21.19
2018-02-14T03:48:49.342Z,21.19
2018-02-14T03:51:15.406Z,21.17
2018-02-14T03:53:41.484Z,21.18
2018-02-14T03:56:08.804Z,21.18
2018-02-14T03:58:33.611Z,21.19
2018-02-14T04:00:59.680Z,21.20
2018-02-14T04:03:25.695Z,21.19
2018-02-14T04:05:51.796Z,21.21
2018-02-14T04:08:17.829Z,21.22
2018-02-14T04:10:43.967Z,21.20
2018-02-14T04:13:09.903Z,21.17
2018-02-14T04:15:35.962Z,21.91
2018-02-14T04:18:01.998Z,22.56
2018-02-14T04:20:28.067Z,22.64
2018-02-14T04:22:54.165Z,23.06
2018-02-14T04:25:20.267Z,23.24
2018-02-14T04:27:46.298Z,24.00
2018-02-14T04:30:12.340Z,24.09
2018-02-14T04:32:38.361Z,24.12
2018-02-14T04:35:04.386Z,23.73
2018-02-14T04:37:30.433Z,23.38
2018-02-14T04:39:56.518Z,22.81
2018-02-14T04:42:22.555Z,22.50
2018-02-14T04:44:48.583Z,22.30
2018-02-14T04:47:14.786Z,22.12
2018-02-14T04:49:40.887Z,22.04
2018-02-14T04:52:06.950Z,21.97
2018-02-14T04:54:32.987Z,21.93
2018-02-14T04:56:59.022Z,21.86
2018-02-14T04:59:25.040Z,21.79
2018-02-14T05:01:51.083Z,21.78
2018-02-14T05:04:17.089Z,21.81
2018-02-14T05:06:43.119Z,21.75
2018-02-14T05:09:09.196Z,21.82
2018-02-14T05:11:35.209Z,21.81
2018-02-14T05:14:01.230Z,21.75
2018-02-14T05:16:27.296Z,21.78
2018-02-14T05:18:53.287Z,21.77
2018-02-14T05:21:19.325Z,21.74
2018-02-14T05:23:45.706Z,21.97
2018-02-14T05:26:11.892Z,21.88
2018-02-14T05:28:37.991Z,21.86
2018-02-14T05:31:04.091Z,21.91
2018-02-14T06:02:12.680Z,21.96
2018-02-14T06:04:41.252Z,21.95
2018-02-14T06:07:07.245Z,21.93
2018-02-14T06:09:33.379Z,21.89
2018-02-14T06:11:59.437Z,21.92
2018-02-14T06:14:25.538Z,21.92
2018-02-14T06:16:51.590Z,21.79
2018-02-14T06:19:17.633Z,21.89
2018-02-14T06:21:43.725Z,21.85
2018-02-14T06:24:09.800Z,21.87
2018-02-14T06:26:35.890Z,21.80
2018-02-14T06:29:01.984Z,21.68
2018-02-14T06:31:28.005Z,21.96
2018-02-14T06:33:54.051Z,21.97
2018-02-14T06:36:20.131Z,22.18
2018-02-14T06:38:46.209Z,22.49
2018-02-14T06:41:12.242Z,22.35
2018-02-14T06:43:38.319Z,22.40
2018-02-14T06:46:04.537Z,22.78
2018-02-14T06:48:30.764Z,22.71
2018-02-14T06:50:56.799Z,22.87
2018-02-14T06:53:23.015Z,22.94
2018-02-14T06:55:49.018Z,23.14
2018-02-14T06:58:15.142Z,23.69
2018-02-14T07:00:41.408Z,23.32
2018-02-14T07:03:07.428Z,23.17
2018-02-14T07:05:33.493Z,23.16
2018-02-14T07:07:59.617Z,23.11
2018-02-14T07:10:26.110Z,23.17
2018-02-14T07:12:52.249Z,23.01
2018-02-14T07:15:18.307Z,23.03
2018-02-14T07:17:44.316Z,22.80
2018-02-14T07:20:10.386Z,22.87
2018-02-14T07:22:36.447Z,22.74
2018-02-14T07:25:02.541Z,22.61
2018-02-14T07:27:28.636Z,22.63
2018-02-14T07:29:54.664Z,22.74
2018-02-14T07:32:20.705Z,22.47
2018-02-14T07:34:46.933Z,22.44
2018-02-14T07:37:12.964Z,22.37
2018-02-14T07:39:38.974Z,22.15
2018-02-14T07:42:05.083Z,22.19
2018-02-14T07:44:31.148Z,22.09
2018-02-14T07:46:58.269Z,22.14
2018-02-14T07:49:24.344Z,22.14
2018-02-14T07:51:50.511Z,22.14
2018-02-14T07:54:16.578Z,22.06
2018-02-14T07:56:42.619Z,22.17
2018-02-14T07:59:08.655Z,22.14
2018-02-14T08:01:34.736Z,21.92
2018-02-14T08:04:00.793Z,21.99
2018-02-14T08:06:26.813Z,22.00
2018-02-14T08:08:52.936Z,21.94
2018-02-14T08:11:19.192Z,22.10
2018-02-14T08:13:45.294Z,21.79
2018-02-14T08:16:11.412Z,21.86
2018-02-14T08:18:37.479Z,21.89
2018-02-14T08:21:03.590Z,21.87
2018-02-14T08:23:29.637Z,21.82
2018-02-14T08:25:55.860Z,21.70
2018-02-14T08:28:21.982Z,21.97
2018-02-14T08:30:48.073Z,21.93
2018-02-14T08:33:14.162Z,21.81
2018-02-14T08:35:40.270Z,21.85
2018-02-14T08:38:06.332Z,21.70
2018-02-14T08:40:32.438Z,21.59
2018-02-14T08:42:58.477Z,21.65
2018-02-14T08:45:24.506Z,21.63
2018-02-14T08:47:50.555Z,21.69
2018-02-14T08:50:17.005Z,21.53
2018-02-14T08:52:43.428Z,21.11
2018-02-14T08:55:09.323Z,21.48
2018-02-14T08:57:37.648Z,21.23
2018-02-14T09:00:03.880Z,21.30
2018-02-14T09:02:30.783Z,21.51
2018-02-14T09:04:56.974Z,21.46
2018-02-14T09:07:23.161Z,22.13
2018-02-14T09:09:49.510Z,21.32
2018-02-14T09:12:15.644Z,21.15
2018-02-14T09:14:42.014Z,21.31
2018-02-14T09:17:08.047Z,21.19
2018-02-14T09:19:34.173Z,21.23
2018-02-14T09:22:00.243Z,21.18
2018-02-14T09:24:26.280Z,21.50
2018-02-14T09:26:52.296Z,21.48
2018-02-14T09:29:18.335Z,20.73
2018-02-14T09:31:44.419Z,21.02
2018-02-14T09:34:10.458Z,21.21
2018-02-14T09:36:36.520Z,20.96
2018-02-14T09:39:02.591Z,21.00
2018-02-14T10:25:58.778Z,19.98
2018-02-14T10:28:24.805Z,19.89
2018-02-14T10:30:50.818Z,22.70
2018-02-14T10:34:24.304Z,20.87
2018-02-14T10:36:50.625Z,21.69
2018-02-14T14:51:25.453Z,19.39
2018-02-14T14:53:51.529Z,18.40
2018-02-14T14:58:55.109Z,19.42
2018-02-14T15:01:21.153Z,18.19
2018-02-14T15:03:47.408Z,17.76
2018-02-14T15:06:13.459Z,17.59
2018-02-14T15:12:21.416Z,16.93
2018-02-14T15:14:47.510Z,16.44
2018-02-14T15:17:13.570Z,16.63
2018-02-14T15:19:39.951Z,17.05
2018-02-14T15:22:06.037Z,16.04
2018-02-14T15:24:32.281Z,16.55
2018-02-14T15:26:58.384Z,15.55
2018-02-14T15:29:24.449Z,16.45
2018-02-14T15:31:50.526Z,15.34
2018-02-14T15:36:24.992Z,15.32
2018-02-14T15:38:50.951Z,15.18
2018-02-14T15:46:04.934Z,15.43
2018-02-14T15:48:30.937Z,17.41
2018-02-14T15:50:57.002Z,16.39
2018-02-14T15:58:47.912Z,17.98
2018-02-14T16:01:13.933Z,18.36
2018-02-14T16:03:40.022Z,18.76
2018-02-14T16:06:07.034Z,18.81
2018-02-14T16:08:33.050Z,18.58
2018-02-14T16:10:59.093Z,18.06
2018-02-14T16:13:25.190Z,18.57
2018-02-14T16:15:51.200Z,19.01
2018-02-14T16:18:17.220Z,19.28
2018-02-14T16:20:43.228Z,18.23
2018-02-14T16:23:09.378Z,18.62
2018-02-14T16:25:35.320Z,18.57
2018-02-14T16:28:01.331Z,18.82
2018-02-14T16:30:27.447Z,18.29
2018-02-14T16:32:53.441Z,18.35
2018-02-14T16:35:19.464Z,18.29
2018-02-14T16:37:45.460Z,18.29
2018-02-14T16:40:11.610Z,18.22
2018-02-14T16:42:37.769Z,18.20
2018-02-14T16:45:03.990Z,18.18
2018-02-14T16:47:29.995Z,18.24
2018-02-14T16:49:56.010Z,18.09
2018-02-14T16:52:22.064Z,18.22
2018-02-14T16:54:48.059Z,18.11
2018-02-14T16:57:14.072Z,18.10
2018-02-14T16:59:40.086Z,18.03
2018-02-14T17:02:06.083Z,18.00
2018-02-14T17:06:53.564Z,17.85
2018-02-14T17:09:20.185Z,17.96
2018-02-14T17:11:46.891Z,18.01
2018-02-14T17:16:24.649Z,17.88
2018-02-14T17:18:51.387Z,17.80
2018-02-14T17:21:18.086Z,17.68
2018-02-14T17:23:44.733Z,17.98
2018-02-14T17:27:06.435Z,17.79
2018-02-14T17:29:33.404Z,17.85
2018-02-14T17:31:59.995Z,17.81
2018-02-14T17:34:26.537Z,17.81
2018-02-14T17:36:53.101Z,17.77
2018-02-14T17:39:19.665Z,17.74
2018-02-14T17:41:46.298Z,17.82
2018-02-14T17:44:12.882Z,17.76
2018-02-14T17:46:39.478Z,17.79
2018-02-14T17:49:06.065Z,17.82
2018-02-14T17:51:32.611Z,17.81
2018-02-14T17:53:59.184Z,17.52
2018-02-14T17:56:25.750Z,17.61
2018-02-14T17:58:52.329Z,17.67
2018-02-14T18:01:18.867Z,17.53
2018-02-14T18:03:45.438Z,17.47
2018-02-14T18:06:12.010Z,17.37
2018-02-14T18:08:38.711Z,17.37
2018-02-14T18:11:05.264Z,17.44
2018-02-14T18:13:31.833Z,17.45
2018-02-14T18:15:58.426Z,17.38
2018-02-14T18:18:24.990Z,17.35
2018-02-14T18:20:51.607Z,17.24
2018-02-14T18:23:18.167Z,17.28
2018-02-14T18:25:44.749Z,17.20
2018-02-14T18:28:11.328Z,17.04
2018-02-14T18:30:37.891Z,17.07
2018-02-14T18:33:04.470Z,17.05
2018-02-14T18:35:31.045Z,17.07
2018-02-14T18:37:57.620Z,16.98
2018-02-14T18:40:24.212Z,17.02
2018-02-14T18:42:50.802Z,16.95
2018-02-14T18:45:17.366Z,16.96
2018-02-14T18:47:43.995Z,16.89
2018-02-14T18:50:10.595Z,16.91
2018-02-14T18:52:37.155Z,16.88
2018-02-14T18:55:03.783Z,16.82
2018-02-14T18:57:30.357Z,16.78
2018-02-14T18:59:56.974Z,16.69
2018-02-14T19:02:23.643Z,16.66
2018-02-14T19:04:50.213Z,16.69
2018-02-14T19:07:16.837Z,16.64
2018-02-14T19:09:43.443Z,16.57
2018-02-14T19:12:10.026Z,16.55
2018-02-14T19:14:36.653Z,16.56
2018-02-14T19:17:03.282Z,16.50
2018-02-14T19:19:29.877Z,16.53
2018-02-14T19:21:56.533Z,16.44
2018-02-14T19:24:23.139Z,16.42
2018-02-14T19:26:49.738Z,16.39
2018-02-14T19:29:16.358Z,16.39
2018-02-14T19:31:42.958Z,16.34
2018-02-14T19:34:09.594Z,16.37
2018-02-14T19:36:36.204Z,16.29
2018-02-14T19:39:02.853Z,16.25
2018-02-14T19:41:29.475Z,16.18
2018-02-14T19:43:56.082Z,16.07
2018-02-14T19:46:22.694Z,16.12
2018-02-14T19:48:49.279Z,16.11
2018-02-14T19:51:16.000Z,16.13
2018-02-14T19:53:42.586Z,16.11
2018-02-14T19:56:09.177Z,16.14
2018-02-14T19:58:35.840Z,16.06
2018-02-14T20:01:02.489Z,16.07
2018-02-14T20:03:29.082Z,16.00
2018-02-14T20:05:55.699Z,16.01
2018-02-14T20:08:22.268Z,15.98
2018-02-14T20:10:48.909Z,15.97
2018-02-14T20:13:15.572Z,15.96
2018-02-14T20:15:42.198Z,15.96
2018-02-14T20:18:08.860Z,15.92
2018-02-14T20:20:35.537Z,15.92
2018-02-14T20:23:02.153Z,15.88
2018-02-14T20:25:28.752Z,15.91
2018-02-14T20:27:55.346Z,15.83
2018-02-14T20:30:21.945Z,15.86
2018-02-14T20:32:48.543Z,15.87
2018-02-14T20:35:15.194Z,15.88
2018-02-14T20:37:41.774Z,15.83
2018-02-14T20:40:08.425Z,15.81
2018-02-14T20:42:34.996Z,15.83
2018-02-14T20:45:01.626Z,15.80
2018-02-14T20:47:28.189Z,15.72
2018-02-14T20:49:54.898Z,15.79
2018-02-14T20:52:21.467Z,15.77
2018-02-14T20:54:48.085Z,15.74
2018-02-14T20:57:14.695Z,15.74
2018-02-14T20:59:41.539Z,15.64
2018-02-14T21:02:08.150Z,15.65
2018-02-14T21:04:34.722Z,15.66
2018-02-14T21:07:01.332Z,15.71
2018-02-14T21:09:28.014Z,15.71
2018-02-14T21:11:54.653Z,15.72
2018-02-14T21:14:21.221Z,15.67
2018-02-14T21:16:47.827Z,15.75
2018-02-14T21:19:14.442Z,15.73
2018-02-14T21:21:41.129Z,15.72
2018-02-14T21:24:07.748Z,15.74
2018-02-14T21:26:34.371Z,15.76
2018-02-14T21:29:00.998Z,15.77
2018-02-14T21:31:27.639Z,15.75
2018-02-14T21:33:54.238Z,15.79
2018-02-14T21:36:20.800Z,15.76
2018-02-14T21:38:47.379Z,15.73
2018-02-14T21:41:14.068Z,15.79
2018-02-14T21:43:40.707Z,15.79
2018-02-14T21:46:07.321Z,15.85
2018-02-14T21:48:33.934Z,15.82
2018-02-14T21:51:00.569Z,15.80
2018-02-14T21:53:27.166Z,15.87
2018-02-14T21:55:53.733Z,15.86
2018-02-14T21:58:20.633Z,15.83
2018-02-14T22:00:47.215Z,15.87
2018-02-14T22:03:13.780Z,15.87
2018-02-14T22:05:40.404Z,15.91
2018-02-14T22:08:06.978Z,15.87
2018-02-14T22:10:33.536Z,15.85
2018-02-14T22:13:00.104Z,16.06
2018-02-14T22:15:26.666Z,15.97
2018-02-14T22:17:53.306Z,15.88
2018-02-14T22:20:19.912Z,15.83
2018-02-14T22:22:46.497Z,15.88
2018-02-14T22:25:13.067Z,15.84
2018-02-14T22:27:39.679Z,15.81
2018-02-14T22:30:06.692Z,15.83
2018-02-14T22:32:33.297Z,15.85
2018-02-14T22:34:59.859Z,15.89
2018-02-14T22:37:26.432Z,15.82
2018-02-14T22:39:53.094Z,15.81
2018-02-14T22:42:19.661Z,15.81
2018-02-14T22:44:46.235Z,15.82
2018-02-14T22:47:12.803Z,15.83
2018-02-14T22:49:39.427Z,15.67
2018-02-14T22:52:06.018Z,15.88
2018-02-14T22:54:32.622Z,15.97
2018-02-14T22:56:59.191Z,16.13
2018-02-14T22:59:25.875Z,16.11
2018-02-14T23:01:52.494Z,16.04
2018-02-14T23:04:19.104Z,15.99
2018-02-14T23:06:45.733Z,15.84
2018-02-14T23:09:12.301Z,15.85
2018-02-14T23:11:38.933Z,15.75
2018-02-14T23:14:05.451Z,15.68
2018-02-14T23:16:32.015Z,15.67
2018-02-14T23:18:58.594Z,15.65
2018-02-14T23:21:25.206Z,15.65
2018-02-14T23:23:51.782Z,15.66
2018-02-14T23:26:18.423Z,15.63
2018-02-14T23:28:45.004Z,15.57
2018-02-14T23:31:11.596Z,15.55
2018-02-14T23:33:38.185Z,15.52
2018-02-14T23:36:04.802Z,15.46
2018-02-14T23:38:31.387Z,15.42
2018-02-14T23:40:58.072Z,15.43
2018-02-14T23:43:24.670Z,15.38
2018-02-14T23:45:51.253Z,15.43
2018-02-14T23:48:17.841Z,15.35
2018-02-14T23:50:44.528Z,15.34
2018-02-14T23:53:11.092Z,15.32
2018-02-14T23:55:37.652Z,15.30
2018-02-14T23:58:04.251Z,15.24
